Time;durP1;ratioP1;P1;durP2;ratioP2;P2;SDS_P1;SDS_P2;PMS_P1;PMS_P2;Temp;Humidity;BMP_temperature;BMP_pressure;BME280_temperature;BME280_humidity;BME280_pressure;Samples;Min_cycle;Max_cycle;Signal;HPM_P1;HPM_P2
2021/04/09 00:02:11;;;;;;;17.42;12.80;;;6.10;76.10;;;;;;4859754;29;20081;-80
2021/04/09 00:04:37;;;;;;;17.83;11.82;;;6.10;75.80;;;;;;4859899;29;20090;-81
2021/04/09 00:07:03;;;;;;;20.17;14.65;;;6.10;75.80;;;;;;4858648;29;20065;-81
2021/04/09 00:09:29;;;;;;;16.80;12.13;;;6.10;76.30;;;;;;4858614;29;20128;-81
2021/04/09 00:11:55;;;;;;;19.30;12.55;;;6.10;76.00;;;;;;4859313;29;20141;-80
2021/04/09 00:14:21;;;;;;;18.95;12.70;;;6.00;75.60;;;;;;4859189;29;20137;-80
2021/04/09 00:16:47;;;;;;;18.00;12.52;;;6.00;75.50;;;;;;4859637;29;20136;-80
2021/04/09 00:19:14;;;;;;;19.95;12.95;;;6.00;75.40;;;;;;4859816;29;20054;-80
2021/04/09 00:21:41;;;;;;;16.73;12.10;;;6.00;75.50;;;;;;4858877;29;20053;-80
2021/04/09 00:24:07;;;;;;;21.77;13.20;;;6.00;75.60;;;;;;4859209;29;20566;-80
2021/04/09 00:26:34;;;;;;;17.25;12.02;;;6.00;75.80;;;;;;4858696;29;20140;-80
2021/04/09 00:29:00;;;;;;;17.55;12.50;;;5.90;75.60;;;;;;4858661;29;20092;-80
2021/04/09 00:31:25;;;;;;;20.70;14.63;;;5.90;76.00;;;;;;4857825;29;20081;-80
2021/04/09 00:33:51;;;;;;;19.30;11.82;;;5.90;76.60;;;;;;4855410;29;20054;-81
2021/04/09 00:36:18;;;;;;;20.42;13.60;;;5.90;76.30;;;;;;4856014;29;20115;-80
2021/04/09 00:38:44;;;;;;;18.73;13.20;;;5.90;76.20;;;;;;4862245;29;20132;-80
2021/04/09 00:41:12;;;;;;;19.52;12.82;;;5.90;77.70;;;;;;4862366;29;20506;-80
2021/04/09 00:43:39;;;;;;;18.15;13.00;;;5.90;76.70;;;;;;4862126;29;20049;-81
2021/04/09 00:46:04;;;;;;;17.98;12.70;;;5.90;76.90;;;;;;4862294;29;20502;-80
2021/04/09 00:48:30;;;;;;;18.48;12.63;;;5.90;77.00;;;;;;4862682;29;20080;-81
2021/04/09 00:50:56;;;;;;;17.42;12.15;;;5.90;77.20;;;;;;4861471;29;20510;-81
2021/04/09 00:53:22;;;;;;;18.40;12.13;;;5.80;77.00;;;;;;4862180;29;20073;-80
2021/04/09 00:55:48;;;;;;;18.05;12.80;;;5.80;76.90;;;;;;4861371;29;20054;-80
2021/04/09 00:58:14;;;;;;;16.88;12.55;;;5.80;76.90;;;;;;4862637;29;20053;-80
2021/04/09 01:00:41;;;;;;;19.13;13.18;;;5.80;77.00;;;;;;4862251;29;20502;-81
2021/04/09 01:03:07;;;;;;;18.60;12.27;;;5.80;77.20;;;;;;4861788;29;20465;-80
2021/04/09 01:05:35;;;;;;;18.48;12.38;;;5.80;77.60;;;;;;4861620;29;20459;-80
2021/04/09 01:08:02;;;;;;;18.73;13.02;;;5.80;77.70;;;;;;4862076;29;20098;-80
2021/04/09 01:10:28;;;;;;;17.58;12.55;;;5.80;77.90;;;;;;4861422;29;20064;-80
2021/04/09 01:12:54;;;;;;;19.48;11.80;;;5.80;77.80;;;;;;4862176;29;20140;-80
2021/04/09 01:15:20;;;;;;;21.55;12.30;;;5.80;78.20;;;;;;4862504;29;20132;-80
2021/04/09 01:18:19;;;;;;;19.20;12.63;;;5.80;78.20;;;;;;4861342;29;20049;-80
2021/04/09 01:21:19;;;;;;;20.05;11.80;;;5.80;78.10;;;;;;4861758;29;20410;-80
2021/04/09 01:24:20;;;;;;;21.20;12.32;;;5.70;77.50;;;;;;4854314;29;20053;-80
2021/04/09 01:27:09;;;;;;;20.83;12.90;;;5.70;77.80;;;;;;4861323;29;20062;-80
2021/04/09 01:29:58;;;;;;;18.33;12.27;;;5.70;77.70;;;;;;4861880;29;20396;-80
2021/04/09 01:32:23;;;;;;;19.17;12.93;;;5.70;77.70;;;;;;4861204;29;20050;-80
2021/04/09 01:34:53;;;;;;;22.70;13.15;;;5.70;78.10;;;;;;4861441;29;20132;-80
2021/04/09 01:37:26;;;;;;;20.02;12.25;;;5.70;78.30;;;;;;4861041;29;20057;-80
2021/04/09 01:40:25;;;;;;;22.70;13.10;;;5.70;78.10;;;;;;4861122;29;20049;-80
2021/04/09 01:43:00;;;;;;;18.52;13.18;;;5.70;78.00;;;;;;4853282;29;20050;-80
2021/04/09 01:45:28;;;;;;;20.20;12.57;;;5.70;78.70;;;;;;4860746;29;20053;-81
2021/04/09 01:47:54;;;;;;;18.73;13.07;;;5.70;78.70;;;;;;4861459;29;20060;-79
2021/04/09 01:50:21;;;;;;;19.00;12.98;;;5.70;78.60;;;;;;4861866;29;20060;-80
2021/04/09 01:52:49;;;;;;;20.85;13.90;;;5.70;78.40;;;;;;4860600;29;20046;-80
2021/04/09 01:55:18;;;;;;;21.05;13.70;;;5.70;78.70;;;;;;4859824;29;20089;-80
2021/04/09 01:57:44;;;;;;;20.38;12.98;;;5.70;78.90;;;;;;4861317;29;20053;-80
2021/04/09 02:00:17;;;;;;;19.33;13.32;;;5.70;78.80;;;;;;4860598;29;20068;-81
2021/04/09 02:02:46;;;;;;;18.48;12.52;;;5.70;78.90;;;;;;4860407;29;20460;-80
2021/04/09 02:05:16;;;;;;;19.55;13.02;;;5.70;78.80;;;;;;4843018;29;20057;-80
2021/04/09 02:07:44;;;;;;;27.90;13.32;;;5.70;78.70;;;;;;4859361;29;20114;-80
2021/04/09 02:10:11;;;;;;;23.45;13.35;;;5.70;78.70;;;;;;4860882;29;20153;-80
2021/04/09 02:12:39;;;;;;;20.77;13.55;;;5.70;78.60;;;;;;4860703;29;20174;-80
2021/04/09 02:15:08;;;;;;;22.33;13.48;;;5.70;78.50;;;;;;4859928;29;20050;-80
2021/04/09 02:17:36;;;;;;;19.63;13.35;;;5.70;78.70;;;;;;4861049;29;20459;-80
2021/04/09 02:20:06;;;;;;;24.88;13.07;;;5.70;79.30;;;;;;4860548;29;20072;-80
2021/04/09 02:22:33;;;;;;;21.27;12.75;;;5.70;79.40;;;;;;4859534;29;20053;-80
2021/04/09 02:24:59;;;;;;;19.60;13.65;;;5.70;79.30;;;;;;4860140;29;20084;-80
2021/04/09 02:27:24;;;;;;;23.10;12.88;;;5.70;79.30;;;;;;4860135;29;20483;-81
2021/04/09 02:29:50;;;;;;;18.13;12.57;;;5.70;79.00;;;;;;4860572;29;20054;-80
2021/04/09 02:32:17;;;;;;;21.77;12.52;;;5.70;78.90;;;;;;4860763;29;20053;-80
2021/04/09 02:34:43;;;;;;;22.25;13.35;;;5.70;78.90;;;;;;4858984;29;20074;-79
2021/04/09 02:37:09;;;;;;;21.50;13.80;;;5.70;78.70;;;;;;4860504;29;20049;-80
2021/04/09 02:39:39;;;;;;;19.35;12.73;;;5.70;78.80;;;;;;4860533;29;20478;-81
2021/04/09 02:42:07;;;;;;;21.98;13.35;;;5.70;78.70;;;;;;4858567;29;20410;-80
2021/04/09 02:44:33;;;;;;;18.40;13.80;;;5.70;78.70;;;;;;4848493;29;20084;-80
2021/04/09 02:47:06;;;;;;;18.60;13.70;;;5.70;79.30;;;;;;4857358;29;20584;-79
2021/04/09 02:49:43;;;;;;;19.20;12.95;;;5.70;80.20;;;;;;4850462;29;20136;-80
2021/04/09 02:52:16;;;;;;;19.52;12.77;;;5.70;79.00;;;;;;4841809;29;20132;-80
2021/04/09 02:54:49;;;;;;;21.13;13.25;;;5.70;78.90;;;;;;4841896;29;20085;-80
2021/04/09 02:57:15;;;;;;;22.10;13.40;;;5.70;78.80;;;;;;4841483;29;20078;-80
2021/04/09 02:59:41;;;;;;;18.33;13.10;;;5.70;79.10;;;;;;4842061;29;20049;-80
2021/04/09 03:02:09;;;;;;;20.60;13.27;;;5.70;79.40;;;;;;4842881;29;20060;-80
2021/04/09 03:04:35;;;;;;;20.55;14.07;;;5.70;79.30;;;;;;4841119;29;20079;-80
2021/04/09 03:07:01;;;;;;;18.73;12.65;;;5.70;80.10;;;;;;4841369;29;20062;-80
2021/04/09 03:09:27;;;;;;;18.90;12.90;;;5.70;80.10;;;;;;4840578;29;20569;-81
2021/04/09 03:11:53;;;;;;;21.27;13.40;;;5.70;80.00;;;;;;4857379;29;20136;-80
2021/04/09 03:14:20;;;;;;;18.25;13.57;;;5.70;79.90;;;;;;4859421;29;20058;-80
2021/04/09 03:17:03;;;;;;;19.77;13.27;;;5.70;79.90;;;;;;4851340;29;20842;-80
2021/04/09 03:19:29;;;;;;;;;;;5.70;79.50;;;;;;4860510;29;20061;-80
2021/04/09 03:21:55;;;;;;;22.83;13.07;;;5.70;78.90;;;;;;4859951;29;19931;-80
2021/04/09 03:24:20;;;;;;;18.27;12.80;;;5.70;79.40;;;;;;4859578;29;20459;-80
2021/04/09 03:26:46;;;;;;;21.33;13.38;;;5.70;79.30;;;;;;4859956;29;20053;-80
2021/04/09 03:29:12;;;;;;;22.67;13.52;;;5.70;79.30;;;;;;4860287;29;20136;-80
2021/04/09 03:31:37;;;;;;;20.65;13.88;;;5.70;79.20;;;;;;4859412;29;20192;-80
2021/04/09 03:34:03;;;;;;;21.35;14.27;;;5.70;79.30;;;;;;4859757;29;20049;-80
2021/04/09 03:36:29;;;;;;;19.92;13.80;;;5.70;79.80;;;;;;4848914;29;20062;-80
2021/04/09 03:38:55;;;;;;;18.85;12.93;;;5.80;79.80;;;;;;4840513;29;20080;-80
2021/04/09 03:41:20;;;;;;;18.40;13.00;;;5.80;79.50;;;;;;4849650;29;20081;-80
2021/04/09 03:43:46;;;;;;;19.35;13.25;;;5.80;79.40;;;;;;4841171;29;20050;-80
2021/04/09 03:46:12;;;;;;;17.90;13.52;;;5.80;79.50;;;;;;4840754;29;20089;-81
2021/04/09 03:48:38;;;;;;;28.88;14.18;;;5.80;79.70;;;;;;4841225;29;20110;-80
2021/04/09 03:51:04;;;;;;;21.30;13.05;;;5.80;79.40;;;;;;4844303;29;20106;-80
2021/04/09 03:53:30;;;;;;;19.50;13.10;;;5.80;79.20;;;;;;4830694;29;20062;-80
2021/04/09 03:55:59;;;;;;;22.13;13.60;;;5.80;79.00;;;;;;4841618;29;20069;-80
2021/04/09 03:58:24;;;;;;;21.75;13.15;;;5.90;79.20;;;;;;4858632;29;20050;-80
2021/04/09 04:00:50;;;;;;;17.98;13.20;;;5.80;79.10;;;;;;4856831;29;20060;-81
2021/04/09 04:03:16;;;;;;;19.77;13.02;;;5.80;79.20;;;;;;4859772;29;20053;-80
2021/04/09 04:05:47;;;;;;;20.17;13.73;;;5.90;79.50;;;;;;4858774;29;20067;-80
2021/04/09 04:08:13;;;;;;;19.00;13.60;;;5.90;79.40;;;;;;4862452;29;20053;-80
2021/04/09 04:10:39;;;;;;;19.30;12.75;;;5.90;79.50;;;;;;4863010;29;20517;-80
2021/04/09 04:13:04;;;;;;;19.80;12.85;;;5.80;79.30;;;;;;4862191;29;20153;-79
2021/04/09 04:15:30;;;;;;;20.48;12.88;;;5.90;79.50;;;;;;4855748;29;20078;-80
2021/04/09 04:17:56;;;;;;;21.67;13.98;;;5.90;79.40;;;;;;4844194;29;20050;-80
2021/04/09 04:20:22;;;;;;;20.02;12.52;;;5.90;79.50;;;;;;4844145;29;20058;-80
2021/04/09 04:22:47;;;;;;;17.83;12.95;;;5.90;79.20;;;;;;4844499;29;20054;-80
2021/04/09 04:25:17;;;;;;;20.23;12.57;;;5.90;79.50;;;;;;4844621;29;20087;-80
2021/04/09 04:27:43;;;;;;;19.90;13.13;;;5.90;79.30;;;;;;4843596;29;20053;-80
2021/04/09 04:30:09;;;;;;;18.40;13.02;;;5.90;79.50;;;;;;4849982;29;20102;-80
2021/04/09 04:32:35;;;;;;;20.20;13.73;;;5.90;79.50;;;;;;4862562;29;20058;-80
2021/04/09 04:35:01;;;;;;;19.85;13.65;;;5.90;79.40;;;;;;4854958;29;20069;-81
2021/04/09 04:37:26;;;;;;;20.70;13.18;;;5.90;79.40;;;;;;4844507;29;20046;-80
2021/04/09 04:39:52;;;;;;;20.95;13.27;;;5.90;79.60;;;;;;4844122;29;20050;-80
2021/04/09 04:42:18;;;;;;;21.80;12.90;;;5.80;79.70;;;;;;4843814;29;20411;-80
2021/04/09 04:44:43;;;;;;;22.00;12.70;;;5.80;79.70;;;;;;4843917;29;20415;-80
2021/04/09 04:47:09;;;;;;;20.83;13.02;;;5.80;79.70;;;;;;4844225;29;20191;-80
2021/04/09 04:52:46;;;;;;;19.02;13.10;;;5.80;79.90;;;;;;4836126;29;20128;-81
2021/04/09 04:55:17;;;;;;;22.33;13.98;;;5.80;79.70;;;;;;4852681;29;20156;-81
2021/04/09 04:57:59;;;;;;;23.73;13.80;;;5.80;80.00;;;;;;4852912;29;20162;-81
2021/04/09 05:00:25;;;;;;;20.95;12.80;;;5.80;80.10;;;;;;4860873;29;20053;-80
2021/04/09 05:02:52;;;;;;;18.48;13.07;;;5.80;80.10;;;;;;4859087;29;20102;-80
2021/04/09 05:05:21;;;;;;;19.33;13.00;;;5.80;80.20;;;;;;4852473;29;20054;-80
2021/04/09 05:07:47;;;;;;;20.10;13.25;;;5.80;80.30;;;;;;4861645;29;20060;-80
2021/04/09 05:10:14;;;;;;;22.90;13.73;;;5.80;80.40;;;;;;4861780;29;20049;-81
2021/04/09 05:12:39;;;;;;;18.70;12.57;;;5.70;80.70;;;;;;4877438;23;20081;-80
2021/04/09 05:15:06;;;;;;;19.77;13.10;;;5.70;80.60;;;;;;4874851;29;20518;-80
2021/04/09 05:17:32;;;;;;;17.77;12.45;;;5.70;81.10;;;;;;4880058;29;20426;-80
2021/04/09 05:19:58;;;;;;;22.90;12.70;;;5.70;81.00;;;;;;4880398;29;20106;-79
2021/04/09 05:22:24;;;;;;;18.40;12.32;;;5.70;81.20;;;;;;4880708;29;20057;-80
2021/04/09 05:24:49;;;;;;;17.27;12.15;;;5.70;81.20;;;;;;4866290;29;20053;-80
2021/04/09 05:27:16;;;;;;;20.60;12.70;;;5.70;81.20;;;;;;4861545;29;20569;-80
2021/04/09 05:29:50;;;;;;;18.10;12.40;;;5.70;81.10;;;;;;4861610;29;20057;-79
2021/04/09 05:32:19;;;;;;;18.50;11.93;;;5.60;81.30;;;;;;4861331;29;20062;-80
2021/04/09 05:34:45;;;;;;;19.88;13.00;;;5.60;81.20;;;;;;4861523;29;20132;-80
2021/04/09 05:37:16;;;;;;;19.05;11.98;;;5.60;81.20;;;;;;4860984;29;20573;-80
2021/04/09 05:39:48;;;;;;;17.45;12.70;;;5.60;81.20;;;;;;4861736;29;20129;-80
2021/04/09 05:42:13;;;;;;;23.38;12.55;;;5.60;81.40;;;;;;4861905;29;20136;-80
2021/04/09 05:48:31;;;;;;;19.25;13.27;;;5.60;81.40;;;;;;4870686;23;20103;-80
2021/04/09 05:51:03;;;;;;;23.40;13.05;;;5.60;81.70;;;;;;4861149;29;20104;-80
2021/04/09 05:53:28;;;;;;;19.15;12.82;;;5.60;81.60;;;;;;4859211;29;20140;-80
2021/04/09 05:56:00;;;;;;;20.60;13.07;;;5.60;81.70;;;;;;4858639;29;20064;-80
2021/04/09 05:58:29;;;;;;;19.38;13.18;;;5.60;82.10;;;;;;4861071;29;20053;-80
2021/04/09 06:00:56;;;;;;;19.67;13.07;;;5.60;82.20;;;;;;4861224;29;20077;-80
2021/04/09 06:03:27;;;;;;;21.00;13.32;;;5.60;82.10;;;;;;4861034;29;20049;-80
2021/04/09 06:05:57;;;;;;;18.83;12.90;;;5.60;82.10;;;;;;4859129;29;20068;-80
2021/04/09 06:08:28;;;;;;;18.58;12.60;;;5.60;81.90;;;;;;4842954;29;20134;-80
2021/04/09 06:10:57;;;;;;;21.63;13.35;;;5.60;81.80;;;;;;4854668;29;20118;-80
2021/04/09 06:13:26;;;;;;;21.20;13.77;;;5.60;82.20;;;;;;4898250;23;20403;-79
2021/04/09 06:15:52;;;;;;;18.67;13.43;;;5.60;82.60;;;;;;4842772;29;20064;-80
2021/04/09 06:18:18;;;;;;;22.25;13.68;;;5.60;82.60;;;;;;4854109;29;20509;-80
2021/04/09 06:20:43;;;;;;;20.13;13.23;;;5.70;82.40;;;;;;4860152;29;20091;-80
2021/04/09 06:23:09;;;;;;;21.20;13.00;;;5.70;82.50;;;;;;4855832;29;20054;-80
2021/04/09 06:25:35;;;;;;;18.63;12.88;;;5.70;82.60;;;;;;4845044;29;20526;-79
2021/04/09 06:28:00;;;;;;;20.70;12.63;;;5.80;82.60;;;;;;4849946;29;20448;-79
2021/04/09 06:30:26;;;;;;;20.52;13.10;;;5.80;82.70;;;;;;4860747;29;20064;-79
2021/04/09 06:32:51;;;;;;;19.67;12.68;;;5.90;82.90;;;;;;4859157;29;20060;-80
2021/04/09 06:35:17;;;;;;;22.15;13.98;;;6.00;83.00;;;;;;4850829;29;20476;-79
2021/04/09 06:37:43;;;;;;;20.33;12.65;;;6.00;82.90;;;;;;4842611;29;20058;-80
2021/04/09 06:40:12;;;;;;;22.75;13.05;;;6.10;83.20;;;;;;4857001;29;20475;-79
2021/04/09 06:42:38;;;;;;;20.98;12.70;;;6.20;82.80;;;;;;4854025;29;20058;-80
2021/04/09 06:45:07;;;;;;;23.92;12.27;;;6.20;82.60;;;;;;4849900;29;20140;-80
2021/04/09 06:47:33;;;;;;;21.25;13.32;;;6.30;82.50;;;;;;4860210;29;20375;-80
2021/04/09 06:49:59;;;;;;;19.02;12.38;;;6.30;82.40;;;;;;4851800;29;20075;-81
2021/04/09 06:52:27;;;;;;;21.40;12.68;;;6.40;82.40;;;;;;4858943;29;20042;-80
2021/04/09 06:54:53;;;;;;;22.48;12.60;;;6.50;83.20;;;;;;4859367;29;20057;-81
2021/04/09 06:57:19;;;;;;;21.33;12.00;;;6.60;82.40;;;;;;4860919;29;20053;-80
2021/04/09 06:59:46;;;;;;;22.90;12.25;;;6.60;82.40;;;;;;4860475;29;20049;-80
2021/04/09 07:02:14;;;;;;;19.10;12.48;;;6.70;82.30;;;;;;4860120;29;20053;-82
2021/04/09 07:04:40;;;;;;;20.25;12.52;;;6.70;82.20;;;;;;4860696;29;20057;-81
2021/04/09 07:07:15;;;;;;;18.75;11.80;;;6.80;82.20;;;;;;4858928;29;20049;-81
2021/04/09 07:09:41;;;;;;;19.92;11.23;;;6.90;82.20;;;;;;4851493;29;20062;-81
2021/04/09 07:12:19;;;;;;;20.63;11.35;;;6.90;82.20;;;;;;4860673;29;20128;-82
2021/04/09 07:14:50;;;;;;;18.85;11.27;;;7.00;82.20;;;;;;4851378;29;20081;-81
2021/04/09 07:17:32;;;;;;;18.92;11.57;;;7.10;82.30;;;;;;4855707;29;20053;-80
2021/04/09 07:22:29;;;;;;;20.60;10.63;;;7.20;82.30;;;;;;4857047;24;20124;-81
2021/04/09 07:25:03;;;;;;;16.83;10.50;;;7.30;82.30;;;;;;4848446;29;20061;-82
2021/04/09 07:27:28;;;;;;;18.90;11.13;;;7.40;82.30;;;;;;4855236;29;20057;-82
2021/04/09 07:29:54;;;;;;;23.08;10.88;;;7.40;82.20;;;;;;4851967;29;20913;-82
2021/04/09 07:32:25;;;;;;;20.85;10.82;;;7.50;82.30;;;;;;4848260;29;20487;-81
2021/04/09 07:35:03;;;;;;;22.48;11.38;;;7.50;82.10;;;;;;4845893;29;20054;-81
2021/04/09 07:37:31;;;;;;;20.00;10.65;;;7.60;82.30;;;;;;4851549;29;20073;-80
2021/04/09 07:39:59;;;;;;;19.88;11.15;;;7.70;82.30;;;;;;4857293;29;20057;-80
2021/04/09 07:42:30;;;;;;;20.13;11.20;;;7.70;82.20;;;;;;4854106;29;20489;-80
2021/04/09 07:45:09;;;;;;;21.50;10.77;;;7.70;82.20;;;;;;4852789;29;20183;-81
2021/04/09 07:47:35;;;;;;;22.35;11.98;;;7.80;82.20;;;;;;4853101;29;20105;-79
2021/04/09 07:50:12;;;;;;;21.02;11.43;;;7.80;82.10;;;;;;4859614;29;20058;-80
2021/04/09 07:52:46;;;;;;;16.05;10.48;;;7.90;82.20;;;;;;4857907;29;20132;-80
2021/04/09 07:55:12;;;;;;;18.75;10.20;;;7.90;82.30;;;;;;4863340;29;20053;-79
2021/04/09 07:57:38;;;;;;;19.17;9.88;;;7.90;82.30;;;;;;4861415;29;20049;-79
2021/04/09 08:00:16;;;;;;;17.55;9.80;;;8.00;82.40;;;;;;4860294;29;20140;-79
2021/04/09 08:02:42;;;;;;;21.70;10.73;;;8.00;83.00;;;;;;4861667;29;20081;-79
2021/04/09 08:05:08;;;;;;;16.58;10.18;;;8.10;82.40;;;;;;4862275;29;20137;-79
2021/04/09 08:07:35;;;;;;;17.02;10.15;;;8.10;82.30;;;;;;4861200;29;20521;-80
2021/04/09 08:10:01;;;;;;;18.50;10.35;;;8.10;82.30;;;;;;4860330;29;20049;-80
2021/04/09 08:12:28;;;;;;;18.35;9.65;;;8.20;82.30;;;;;;4861209;29;20056;-80
2021/04/09 08:14:54;;;;;;;19.35;9.77;;;8.20;82.30;;;;;;4861457;29;20049;-80
2021/04/09 08:17:21;;;;;;;21.52;9.93;;;8.20;82.40;;;;;;4862145;29;20053;-81
2021/04/09 08:19:53;;;;;;;23.83;9.43;;;8.20;82.40;;;;;;4861658;29;20064;-82
2021/04/09 08:22:21;;;;;;;22.65;9.95;;;8.20;82.40;;;;;;4862616;29;20069;-81
2021/04/09 08:24:47;;;;;;;21.33;9.88;;;8.30;82.30;;;;;;4862971;29;20054;-82
2021/04/09 08:27:14;;;;;;;17.25;9.02;;;8.30;82.20;;;;;;4853999;29;20050;-81
2021/04/09 08:29:42;;;;;;;20.73;10.10;;;8.40;82.30;;;;;;4854944;29;20053;-81
2021/04/09 08:32:15;;;;;;;20.67;9.90;;;8.40;82.50;;;;;;4863586;29;20456;-81
2021/04/09 08:34:44;;;;;;;22.40;10.38;;;8.50;82.40;;;;;;4862815;29;20045;-81
2021/04/09 08:37:14;;;;;;;20.08;9.98;;;8.50;82.40;;;;;;4863092;29;20102;-83
2021/04/09 08:39:40;;;;;;;19.13;9.77;;;8.60;82.30;;;;;;4848612;29;20082;-82
2021/04/09 08:42:06;;;;;;;18.95;9.80;;;8.60;82.20;;;;;;4859330;29;20073;-83
2021/04/09 08:44:33;;;;;;;21.17;10.38;;;8.60;82.70;;;;;;4862825;29;20133;-83
2021/04/09 08:46:59;;;;;;;20.55;9.90;;;8.70;82.00;;;;;;4847912;29;20212;-83
2021/04/09 08:49:37;;;;;;;20.00;10.20;;;8.70;82.10;;;;;;4854980;29;20453;-83
2021/04/09 08:52:05;;;;;;;18.60;9.65;;;8.70;82.10;;;;;;4852251;29;20064;-81
2021/04/09 08:55:02;;;;;;;18.15;9.00;;;8.80;82.20;;;;;;4853779;29;20046;-82
2021/04/09 08:57:33;;;;;;;21.98;9.02;;;8.80;82.10;;;;;;4855213;29;20129;-84
2021/04/09 09:00:10;;;;;;;21.35;8.90;;;8.80;82.10;;;;;;4858322;29;20136;-81
2021/04/09 09:02:45;;;;;;;16.60;6.90;;;8.80;82.00;;;;;;4850687;29;20380;-81
2021/04/09 09:05:31;;;;;;;18.48;7.00;;;8.80;81.90;;;;;;4855043;29;20152;-81
2021/04/09 09:07:59;;;;;;;15.82;6.72;;;8.80;81.90;;;;;;4853390;29;20491;-81
2021/04/09 09:10:28;;;;;;;13.68;6.28;;;8.80;82.10;;;;;;4860212;29;20103;-82
2021/04/09 09:13:17;;;;;;;15.38;6.45;;;8.80;82.00;;;;;;4851816;29;20413;-83
2021/04/09 09:15:42;;;;;;;14.63;5.80;;;8.80;82.00;;;;;;4849155;29;20085;-81
2021/04/09 09:18:27;;;;;;;16.92;6.28;;;8.80;81.90;;;;;;4859293;29;20149;-82
2021/04/09 09:21:09;;;;;;;14.20;5.93;;;8.80;82.10;;;;;;4847830;29;20054;-81
2021/04/09 09:23:49;;;;;;;12.68;5.95;;;8.80;82.20;;;;;;4846150;29;20061;-81
2021/04/09 09:26:17;;;;;;;19.65;6.38;;;8.90;82.40;;;;;;4844072;29;20519;-82
2021/04/09 09:28:46;;;;;;;17.42;6.25;;;8.90;82.40;;;;;;4847655;29;20509;-81
2021/04/09 09:31:31;;;;;;;17.40;6.95;;;8.90;82.30;;;;;;4856405;29;20426;-82
2021/04/09 09:34:21;;;;;;;15.25;5.97;;;8.90;82.30;;;;;;4844281;29;20093;-81
2021/04/09 09:37:13;;;;;;;19.83;6.15;;;8.90;82.50;;;;;;4856187;29;20484;-85
2021/04/09 09:39:41;;;;;;;19.80;6.25;;;8.90;82.40;;;;;;4853801;29;20053;-84
2021/04/09 09:42:11;;;;;;;14.50;5.88;;;8.90;82.30;;;;;;4845635;29;20125;-83
2021/04/09 09:44:39;;;;;;;18.15;5.97;;;8.90;82.40;;;;;;4853916;29;20053;-83
2021/04/09 09:47:21;;;;;;;25.80;6.65;;;8.90;82.60;;;;;;4845935;29;20054;-85
2021/04/09 09:50:05;;;;;;;17.38;4.75;;;9.00;82.90;;;;;;4847435;29;20125;-84
2021/04/09 09:52:43;;;;;;;15.55;5.13;;;9.00;82.40;;;;;;4845363;29;20475;-82
2021/04/09 09:55:13;;;;;;;13.73;4.28;;;9.10;82.00;;;;;;4854835;29;20045;-83
2021/04/09 09:57:51;;;;;;;19.85;4.18;;;9.00;81.60;;;;;;4855861;29;20115;-82
2021/04/09 10:00:53;;;;;;;12.68;4.25;;;9.00;81.50;;;;;;4851159;29;20148;-84
2021/04/09 10:03:19;;;;;;;12.68;3.97;;;9.10;81.50;;;;;;4858478;29;20216;-82
2021/04/09 10:06:13;;;;;;;16.50;4.30;;;9.10;81.30;;;;;;4858901;29;20072;-83
2021/04/09 10:08:44;;;;;;;16.65;4.00;;;9.10;81.20;;;;;;4861472;29;20062;-84
2021/04/09 10:11:23;;;;;;;18.67;3.90;;;9.10;81.40;;;;;;4858008;29;20061;-83
2021/04/09 10:13:55;;;;;;;14.77;3.97;;;9.20;81.70;;;;;;4851403;29;20459;-86
2021/04/09 10:16:27;;;;;;;12.52;4.03;;;9.20;81.30;;;;;;4848441;29;20064;-83
2021/04/09 10:18:57;;;;;;;11.00;3.67;;;9.30;81.20;;;;;;4849356;29;20057;-85
2021/04/09 10:21:27;;;;;;;17.73;4.00;;;9.30;81.00;;;;;;4851826;29;20061;-85
2021/04/09 10:24:13;;;;;;;13.32;3.50;;;9.40;80.90;;;;;;4851096;29;20463;-86
2021/04/09 10:26:54;;;;;;;16.50;3.55;;;9.40;80.40;;;;;;4845684;29;20084;-84
2021/04/09 10:29:25;;;;;;;14.77;3.63;;;9.40;80.20;;;;;;4850543;29;20183;-86
2021/04/09 10:31:53;;;;;;;13.63;3.22;;;9.40;80.10;;;;;;4854768;29;20120;-84
2021/04/09 10:34:20;;;;;;;16.88;4.32;;;9.40;79.90;;;;;;4851802;29;20057;-84
2021/04/09 10:36:46;;;;;;;16.80;3.90;;;9.40;80.20;;;;;;4842332;29;20418;-82
2021/04/09 10:39:20;;;;;;;15.75;4.20;;;9.50;80.70;;;;;;4859490;29;20053;-83
2021/04/09 10:41:49;;;;;;;11.75;3.10;;;9.60;80.90;;;;;;4853054;29;20407;-85
2021/04/09 10:44:19;;;;;;;11.80;3.47;;;9.60;80.30;;;;;;4854244;29;20072;-85
2021/04/09 10:46:52;;;;;;;12.35;3.33;;;9.70;79.90;;;;;;4857409;29;20498;-84
2021/04/09 10:49:20;;;;;;;14.02;3.45;;;9.70;79.90;;;;;;4860917;29;20097;-84
2021/04/09 10:51:50;;;;;;;19.48;4.22;;;9.70;79.80;;;;;;4859179;29;20084;-85
2021/04/09 10:54:21;;;;;;;20.58;3.70;;;9.70;79.70;;;;;;4859355;29;20045;-83
2021/04/09 10:56:54;;;;;;;13.05;3.50;;;9.70;79.50;;;;;;4860450;29;20057;-83
2021/04/09 10:59:25;;;;;;;12.38;3.83;;;9.80;79.40;;;;;;4859252;29;20137;-82
2021/04/09 11:01:50;;;;;;;12.77;3.53;;;9.80;79.10;;;;;;4852697;29;20143;-81
2021/04/09 11:04:16;;;;;;;12.73;3.85;;;9.80;79.20;;;;;;4856039;29;20065;-82
2021/04/09 11:06:50;;;;;;;12.20;3.20;;;9.80;79.20;;;;;;4851791;29;20849;-82
2021/04/09 11:09:16;;;;;;;13.68;3.70;;;9.70;78.70;;;;;;4853948;29;20499;-83
2021/04/09 11:11:42;;;;;;;13.27;3.50;;;9.70;78.60;;;;;;4854835;29;20083;-84
2021/04/09 11:14:10;;;;;;;14.07;3.80;;;9.70;78.90;;;;;;4854112;29;20088;-83
2021/04/09 11:17:00;;;;;;;15.43;4.00;;;9.60;79.00;;;;;;4848441;29;20083;-84
2021/04/09 11:19:34;;;;;;;16.10;3.47;;;9.60;79.30;;;;;;4849376;29;20053;-84
2021/04/09 11:22:07;;;;;;;10.73;3.53;;;9.50;79.70;;;;;;4851148;29;20138;-85
2021/04/09 11:24:35;;;;;;;19.70;3.60;;;9.50;80.10;;;;;;4843438;29;20156;-88
2021/04/09 11:27:23;;;;;;;13.13;3.47;;;9.50;80.60;;;;;;4854837;29;20045;-88
2021/04/09 11:30:07;;;;;;;14.02;3.97;;;9.50;80.80;;;;;;4843418;29;20073;-87
2021/04/09 11:32:47;;;;;;;11.65;3.70;;;9.50;81.20;;;;;;4860069;29;20041;-82
2021/04/09 11:35:13;;;;;;;10.10;3.45;;;9.50;81.50;;;;;;4855066;29;20064;-83
2021/04/09 11:37:47;;;;;;;15.52;3.67;;;9.60;81.00;;;;;;4859764;29;20050;-84
2021/04/09 11:40:15;;;;;;;10.98;3.38;;;9.70;80.40;;;;;;4860015;29;20050;-82
2021/04/09 11:42:41;;;;;;;10.82;3.03;;;9.80;80.20;;;;;;4860076;29;20049;-83
2021/04/09 11:45:14;;;;;;;12.55;3.53;;;9.80;79.50;;;;;;4851486;29;20057;-84
2021/04/09 11:47:46;;;;;;;8.47;3.47;;;9.80;79.50;;;;;;4859435;29;20135;-84
2021/04/09 11:50:23;;;;;;;13.00;3.40;;;9.80;79.50;;;;;;4854512;29;20160;-84
2021/04/09 11:52:52;;;;;;;13.55;3.47;;;9.90;79.20;;;;;;4845647;29;20049;-82
2021/04/09 11:55:22;;;;;;;14.07;3.95;;;9.90;79.20;;;;;;4861102;29;20061;-84
2021/04/09 11:57:48;;;;;;;13.40;3.50;;;9.90;79.30;;;;;;4855257;29;20194;-82
2021/04/09 12:00:23;;;;;;;15.55;3.63;;;9.80;79.30;;;;;;4856900;29;20049;-82
2021/04/09 12:02:51;;;;;;;14.35;3.60;;;9.80;79.10;;;;;;4856723;29;20060;-83
2021/04/09 12:05:18;;;;;;;14.05;3.55;;;9.80;79.30;;;;;;4852235;29;20415;-83
2021/04/09 12:07:45;;;;;;;14.20;3.63;;;9.70;79.20;;;;;;4851463;29;20054;-85
2021/04/09 12:10:12;;;;;;;11.90;3.40;;;9.70;79.40;;;;;;4854547;29;20060;-83
2021/04/09 12:12:40;;;;;;;14.75;3.80;;;9.70;79.50;;;;;;4858857;29;20464;-85
2021/04/09 12:15:06;;;;;;;13.45;4.00;;;9.70;79.90;;;;;;4859664;29;20053;-80
2021/04/09 12:17:32;;;;;;;14.85;4.38;;;9.70;79.90;;;;;;4849114;29;20150;-82
2021/04/09 12:19:58;;;;;;;12.82;4.13;;;9.60;80.10;;;;;;4844884;29;20129;-82
2021/04/09 12:22:24;;;;;;;13.52;3.80;;;9.70;80.10;;;;;;4856321;29;20100;-81
2021/04/09 12:24:50;;;;;;;13.20;6.15;;;9.70;80.10;;;;;;4843964;29;20061;-82
2021/04/09 12:27:19;;;;;;;14.18;4.68;;;9.70;80.20;;;;;;4854301;29;20049;-83
2021/04/09 12:29:46;;;;;;;13.05;4.75;;;9.70;80.50;;;;;;4855344;29;20053;-82
2021/04/09 12:32:12;;;;;;;18.60;4.20;;;9.70;80.40;;;;;;4847323;29;20046;-82
2021/04/09 12:34:37;;;;;;;15.07;4.00;;;9.60;80.30;;;;;;4847548;29;20156;-82
2021/04/09 12:37:04;;;;;;;12.52;4.35;;;9.60;80.50;;;;;;4861308;29;20054;-83
2021/04/09 12:39:30;;;;;;;13.13;4.50;;;9.60;81.50;;;;;;4858525;29;20045;-83
2021/04/09 12:41:57;;;;;;;12.63;4.38;;;9.60;81.00;;;;;;4860030;29;20442;-83
2021/04/09 12:44:25;;;;;;;16.45;6.18;;;9.70;81.30;;;;;;4855277;29;20053;-82
2021/04/09 12:46:51;;;;;;;18.90;6.07;;;9.80;80.80;;;;;;4850323;29;20046;-82
2021/04/09 12:49:20;;;;;;;33.95;14.75;;;9.80;80.60;;;;;;4846852;29;20046;-82
2021/04/09 12:51:47;;;;;;;23.45;9.60;;;9.90;80.50;;;;;;4849830;29;20529;-82
2021/04/09 12:54:17;;;;;;;18.65;4.85;;;9.90;80.20;;;;;;4853540;29;20046;-82
2021/04/09 12:56:42;;;;;;;16.45;4.30;;;9.90;80.10;;;;;;4850805;29;20086;-82
2021/04/09 12:59:08;;;;;;;10.32;3.97;;;9.90;80.20;;;;;;4853922;29;20136;-81
2021/04/09 13:01:34;;;;;;;13.10;3.88;;;9.90;80.00;;;;;;4851458;29;20502;-80
2021/04/09 13:04:00;;;;;;;13.73;4.22;;;9.90;79.90;;;;;;4851484;29;20098;-81